Terminal Aerodrome Forecast
Issued by NWS Mt. Holly, NJ

Home | Current Version | Previous Version | Text Only | Print | Product List | Glossary On
Versions: 1 2 3 4 5 6 7 8 9 10 11 12
000
FTUS41 KPHI 202300
TAFACY
TAF
KACY 202335Z 2100/2124 20010KT P6SM SCT150 BKN250
     FM210100 22006KT P6SM BKN150
     FM210400 VRB03KT P6SM FEW040 OVC100
     FM211500 18006KT P6SM BKN040
     FM211800 22005KT P6SM BKN250=

USA.gov is the U.S. government's official web portal to all federal, state and local government web resources and services.